sensor_id;sensor_type;location;lat;lon;timestamp;P1;durP1;ratioP1;P2;durP2;ratioP2
46363;SDS011;32071;49.036;9.344;2022-08-19T00:01:37;17.63;;;15.73;;
46363;SDS011;32071;49.036;9.344;2022-08-19T00:04:05;18.73;;;16.83;;
46363;SDS011;32071;49.036;9.344;2022-08-19T00:06:34;20.00;;;17.40;;
46363;SDS011;32071;49.036;9.344;2022-08-19T00:09:02;17.33;;;15.53;;
46363;SDS011;32071;49.036;9.344;2022-08-19T00:11:30;19.07;;;17.00;;
46363;SDS011;32071;49.036;9.344;2022-08-19T00:13:56;17.60;;;15.90;;
46363;SDS011;32071;49.036;9.344;2022-08-19T00:16:22;17.97;;;16.03;;
46363;SDS011;32071;49.036;9.344;2022-08-19T00:18:49;20.77;;;15.50;;
46363;SDS011;32071;49.036;9.344;2022-08-19T00:21:15;21.23;;;17.10;;
46363;SDS011;32071;49.036;9.344;2022-08-19T00:23:41;19.67;;;16.70;;
46363;SDS011;32071;49.036;9.344;2022-08-19T00:26:08;18.80;;;16.80;;
46363;SDS011;32071;49.036;9.344;2022-08-19T00:28:35;18.53;;;16.50;;
46363;SDS011;32071;49.036;9.344;2022-08-19T00:31:02;17.23;;;15.37;;
46363;SDS011;32071;49.036;9.344;2022-08-19T00:33:29;21.50;;;17.37;;
46363;SDS011;32071;49.036;9.344;2022-08-19T00:36:01;20.10;;;17.90;;
46363;SDS011;32071;49.036;9.344;2022-08-19T00:38:29;18.67;;;16.37;;
46363;SDS011;32071;49.036;9.344;2022-08-19T00:40:55;18.90;;;16.90;;
46363;SDS011;32071;49.036;9.344;2022-08-19T00:43:22;20.00;;;17.87;;
46363;SDS011;32071;49.036;9.344;2022-08-19T00:45:50;21.60;;;17.40;;
46363;SDS011;32071;49.036;9.344;2022-08-19T00:48:16;18.33;;;16.37;;
46363;SDS011;32071;49.036;9.344;2022-08-19T00:50:43;18.50;;;16.50;;
46363;SDS011;32071;49.036;9.344;2022-08-19T00:53:14;19.17;;;17.17;;
46363;SDS011;32071;49.036;9.344;2022-08-19T00:55:46;19.67;;;17.20;;
46363;SDS011;32071;49.036;9.344;2022-08-19T00:58:15;19.13;;;17.13;;
46363;SDS011;32071;49.036;9.344;2022-08-19T01:00:44;18.17;;;16.23;;
46363;SDS011;32071;49.036;9.344;2022-08-19T01:03:11;18.97;;;16.23;;
46363;SDS011;32071;49.036;9.344;2022-08-19T01:05:41;18.87;;;16.90;;
46363;SDS011;32071;49.036;9.344;2022-08-19T01:08:09;17.97;;;16.07;;
46363;SDS011;32071;49.036;9.344;2022-08-19T01:10:42;18.00;;;16.10;;
46363;SDS011;32071;49.036;9.344;2022-08-19T01:13:10;19.87;;;17.37;;
46363;SDS011;32071;49.036;9.344;2022-08-19T01:15:41;17.07;;;15.23;;
46363;SDS011;32071;49.036;9.344;2022-08-19T01:18:11;18.63;;;16.60;;
46363;SDS011;32071;49.036;9.344;2022-08-19T01:20:39;18.23;;;16.10;;
46363;SDS011;32071;49.036;9.344;2022-08-19T01:23:06;18.37;;;16.43;;
46363;SDS011;32071;49.036;9.344;2022-08-19T01:25:34;21.33;;;17.80;;
46363;SDS011;32071;49.036;9.344;2022-08-19T01:28:06;19.40;;;16.90;;
46363;SDS011;32071;49.036;9.344;2022-08-19T01:30:33;18.53;;;16.53;;
46363;SDS011;32071;49.036;9.344;2022-08-19T01:32:59;18.67;;;16.03;;
46363;SDS011;32071;49.036;9.344;2022-08-19T01:35:26;19.03;;;16.60;;
46363;SDS011;32071;49.036;9.344;2022-08-19T01:37:59;18.93;;;16.93;;
46363;SDS011;32071;49.036;9.344;2022-08-19T01:40:27;18.70;;;16.33;;
46363;SDS011;32071;49.036;9.344;2022-08-19T01:42:55;20.13;;;17.17;;
46363;SDS011;32071;49.036;9.344;2022-08-19T01:45:23;19.50;;;17.13;;
46363;SDS011;32071;49.036;9.344;2022-08-19T01:47:51;17.83;;;16.00;;
46363;SDS011;32071;49.036;9.344;2022-08-19T01:50:17;19.20;;;16.97;;
46363;SDS011;32071;49.036;9.344;2022-08-19T01:52:43;18.53;;;16.53;;
46363;SDS011;32071;49.036;9.344;2022-08-19T01:55:10;19.27;;;16.57;;
46363;SDS011;32071;49.036;9.344;2022-08-19T01:57:38;18.10;;;15.67;;
46363;SDS011;32071;49.036;9.344;2022-08-19T02:00:07;17.73;;;15.90;;
46363;SDS011;32071;49.036;9.344;2022-08-19T02:02:36;17.97;;;16.07;;
46363;SDS011;32071;49.036;9.344;2022-08-19T02:05:02;19.73;;;16.60;;
46363;SDS011;32071;49.036;9.344;2022-08-19T02:07:28;18.07;;;16.17;;
46363;SDS011;32071;49.036;9.344;2022-08-19T02:09:54;18.70;;;16.47;;
46363;SDS011;32071;49.036;9.344;2022-08-19T02:12:21;19.07;;;16.80;;
46363;SDS011;32071;49.036;9.344;2022-08-19T02:14:47;19.13;;;17.03;;
46363;SDS011;32071;49.036;9.344;2022-08-19T02:17:13;18.70;;;16.70;;
46363;SDS011;32071;49.036;9.344;2022-08-19T02:19:38;17.93;;;15.97;;
46363;SDS011;32071;49.036;9.344;2022-08-19T02:22:04;20.77;;;17.77;;
46363;SDS011;32071;49.036;9.344;2022-08-19T02:24:30;19.57;;;17.47;;
46363;SDS011;32071;49.036;9.344;2022-08-19T02:26:55;20.17;;;17.53;;
46363;SDS011;32071;49.036;9.344;2022-08-19T02:29:23;19.27;;;16.77;;
46363;SDS011;32071;49.036;9.344;2022-08-19T02:31:49;18.03;;;16.13;;
46363;SDS011;32071;49.036;9.344;2022-08-19T02:34:15;19.17;;;17.00;;
46363;SDS011;32071;49.036;9.344;2022-08-19T02:36:41;18.97;;;16.83;;
46363;SDS011;32071;49.036;9.344;2022-08-19T02:39:07;20.00;;;17.03;;
46363;SDS011;32071;49.036;9.344;2022-08-19T02:41:33;18.10;;;15.83;;
46363;SDS011;32071;49.036;9.344;2022-08-19T02:44:00;18.33;;;16.33;;
46363;SDS011;32071;49.036;9.344;2022-08-19T02:46:28;20.70;;;17.70;;
46363;SDS011;32071;49.036;9.344;2022-08-19T02:48:56;20.50;;;17.00;;
46363;SDS011;32071;49.036;9.344;2022-08-19T02:51:28;20.57;;;18.37;;
46363;SDS011;32071;49.036;9.344;2022-08-19T02:53:57;21.47;;;17.77;;
46363;SDS011;32071;49.036;9.344;2022-08-19T02:56:24;19.20;;;17.13;;
46363;SDS011;32071;49.036;9.344;2022-08-19T02:58:52;19.03;;;16.93;;
46363;SDS011;32071;49.036;9.344;2022-08-19T03:01:22;18.23;;;16.30;;
46363;SDS011;32071;49.036;9.344;2022-08-19T03:03:50;20.93;;;17.77;;
46363;SDS011;32071;49.036;9.344;2022-08-19T03:06:16;20.53;;;17.10;;
46363;SDS011;32071;49.036;9.344;2022-08-19T03:08:43;22.33;;;17.87;;
46363;SDS011;32071;49.036;9.344;2022-08-19T03:11:18;21.50;;;18.20;;
46363;SDS011;32071;49.036;9.344;2022-08-19T03:13:45;18.43;;;15.93;;
46363;SDS011;32071;49.036;9.344;2022-08-19T03:16:13;18.70;;;16.70;;
46363;SDS011;32071;49.036;9.344;2022-08-19T03:18:39;21.30;;;17.50;;
46363;SDS011;32071;49.036;9.344;2022-08-19T03:21:05;20.40;;;16.20;;
46363;SDS011;32071;49.036;9.344;2022-08-19T03:23:31;20.70;;;16.40;;
46363;SDS011;32071;49.036;9.344;2022-08-19T03:25:57;20.23;;;18.00;;
46363;SDS011;32071;49.036;9.344;2022-08-19T03:28:22;21.83;;;17.07;;
46363;SDS011;32071;49.036;9.344;2022-08-19T03:33:47;18.33;;;16.33;;
46363;SDS011;32071;49.036;9.344;2022-08-19T03:36:18;24.13;;;19.20;;
46363;SDS011;32071;49.036;9.344;2022-08-19T03:38:48;18.20;;;16.20;;
46363;SDS011;32071;49.036;9.344;2022-08-19T03:41:36;21.40;;;17.03;;
46363;SDS011;32071;49.036;9.344;2022-08-19T03:44:04;20.23;;;17.27;;
46363;SDS011;32071;49.036;9.344;2022-08-19T03:46:30;18.50;;;16.50;;
46363;SDS011;32071;49.036;9.344;2022-08-19T03:48:58;22.73;;;18.40;;
46363;SDS011;32071;49.036;9.344;2022-08-19T03:51:29;19.43;;;17.23;;
46363;SDS011;32071;49.036;9.344;2022-08-19T03:53:57;20.17;;;17.13;;
46363;SDS011;32071;49.036;9.344;2022-08-19T03:56:24;20.70;;;17.90;;
46363;SDS011;32071;49.036;9.344;2022-08-19T03:58:51;20.53;;;16.70;;
46363;SDS011;32071;49.036;9.344;2022-08-19T04:01:19;20.03;;;17.30;;
46363;SDS011;32071;49.036;9.344;2022-08-19T04:03:47;19.23;;;16.50;;
46363;SDS011;32071;49.036;9.344;2022-08-19T04:06:18;21.57;;;18.30;;
46363;SDS011;32071;49.036;9.344;2022-08-19T04:08:48;22.40;;;18.10;;
46363;SDS011;32071;49.036;9.344;2022-08-19T04:11:17;21.63;;;17.00;;
46363;SDS011;32071;49.036;9.344;2022-08-19T04:13:49;21.53;;;17.60;;
46363;SDS011;32071;49.036;9.344;2022-08-19T04:16:18;20.07;;;17.70;;
46363;SDS011;32071;49.036;9.344;2022-08-19T04:18:45;19.47;;;16.17;;
46363;SDS011;32071;49.036;9.344;2022-08-19T04:21:15;21.80;;;17.80;;
46363;SDS011;32071;49.036;9.344;2022-08-19T04:23:51;19.20;;;16.50;;
46363;SDS011;32071;49.036;9.344;2022-08-19T04:26:20;21.00;;;17.10;;
46363;SDS011;32071;49.036;9.344;2022-08-19T04:28:50;20.43;;;16.97;;
46363;SDS011;32071;49.036;9.344;2022-08-19T04:31:18;20.23;;;17.10;;
46363;SDS011;32071;49.036;9.344;2022-08-19T04:33:45;20.80;;;17.80;;
46363;SDS011;32071;49.036;9.344;2022-08-19T04:36:21;20.30;;;17.27;;
46363;SDS011;32071;49.036;9.344;2022-08-19T04:38:49;20.80;;;17.37;;
46363;SDS011;32071;49.036;9.344;2022-08-19T04:41:18;21.60;;;18.30;;
46363;SDS011;32071;49.036;9.344;2022-08-19T04:44:03;20.03;;;17.37;;
46363;SDS011;32071;49.036;9.344;2022-08-19T04:46:29;20.73;;;16.77;;
46363;SDS011;32071;49.036;9.344;2022-08-19T04:48:56;22.53;;;17.90;;
46363;SDS011;32071;49.036;9.344;2022-08-19T04:51:25;19.80;;;16.93;;
46363;SDS011;32071;49.036;9.344;2022-08-19T04:53:51;23.20;;;18.00;;
46363;SDS011;32071;49.036;9.344;2022-08-19T04:56:17;19.67;;;17.00;;
46363;SDS011;32071;49.036;9.344;2022-08-19T04:58:45;26.70;;;19.50;;
46363;SDS011;32071;49.036;9.344;2022-08-19T05:01:17;22.83;;;17.90;;
46363;SDS011;32071;49.036;9.344;2022-08-19T05:03:43;22.17;;;17.67;;
46363;SDS011;32071;49.036;9.344;2022-08-19T05:06:10;24.17;;;17.70;;
46363;SDS011;32071;49.036;9.344;2022-08-19T05:08:39;20.33;;;16.50;;
46363;SDS011;32071;49.036;9.344;2022-08-19T05:11:10;24.50;;;19.00;;
46363;SDS011;32071;49.036;9.344;2022-08-19T05:13:38;23.33;;;17.70;;
46363;SDS011;32071;49.036;9.344;2022-08-19T05:16:04;20.20;;;17.47;;
46363;SDS011;32071;49.036;9.344;2022-08-19T05:18:30;20.80;;;17.00;;
46363;SDS011;32071;49.036;9.344;2022-08-19T05:21:16;20.27;;;17.37;;
46363;SDS011;32071;49.036;9.344;2022-08-19T05:24:03;21.73;;;18.00;;
46363;SDS011;32071;49.036;9.344;2022-08-19T05:26:33;22.20;;;17.73;;
46363;SDS011;32071;49.036;9.344;2022-08-19T05:28:59;20.90;;;18.27;;
46363;SDS011;32071;49.036;9.344;2022-08-19T05:31:24;22.57;;;18.03;;
46363;SDS011;32071;49.036;9.344;2022-08-19T05:33:50;24.03;;;18.70;;
46363;SDS011;32071;49.036;9.344;2022-08-19T05:36:16;22.70;;;19.10;;
46363;SDS011;32071;49.036;9.344;2022-08-19T05:38:41;26.67;;;20.37;;
46363;SDS011;32071;49.036;9.344;2022-08-19T05:41:07;28.20;;;21.27;;
46363;SDS011;32071;49.036;9.344;2022-08-19T05:43:34;25.80;;;19.87;;
46363;SDS011;32071;49.036;9.344;2022-08-19T05:46:00;25.10;;;20.40;;
46363;SDS011;32071;49.036;9.344;2022-08-19T05:48:25;25.50;;;20.27;;
46363;SDS011;32071;49.036;9.344;2022-08-19T05:50:51;28.03;;;20.93;;
46363;SDS011;32071;49.036;9.344;2022-08-19T05:53:17;27.80;;;20.43;;
46363;SDS011;32071;49.036;9.344;2022-08-19T05:55:43;27.50;;;21.27;;
46363;SDS011;32071;49.036;9.344;2022-08-19T05:58:09;28.20;;;21.00;;
46363;SDS011;32071;49.036;9.344;2022-08-19T06:00:35;26.83;;;20.20;;
46363;SDS011;32071;49.036;9.344;2022-08-19T06:03:02;25.63;;;21.17;;
46363;SDS011;32071;49.036;9.344;2022-08-19T06:05:31;25.40;;;19.10;;
46363;SDS011;32071;49.036;9.344;2022-08-19T06:07:57;29.80;;;20.80;;
46363;SDS011;32071;49.036;9.344;2022-08-19T06:10:23;29.17;;;20.50;;
46363;SDS011;32071;49.036;9.344;2022-08-19T06:12:51;29.00;;;21.53;;
46363;SDS011;32071;49.036;9.344;2022-08-19T06:15:17;27.40;;;20.80;;
46363;SDS011;32071;49.036;9.344;2022-08-19T06:17:43;26.27;;;19.80;;
46363;SDS011;32071;49.036;9.344;2022-08-19T06:20:12;27.00;;;18.23;;
46363;SDS011;32071;49.036;9.344;2022-08-19T06:22:40;25.97;;;20.00;;
46363;SDS011;32071;49.036;9.344;2022-08-19T06:25:07;25.50;;;19.80;;
46363;SDS011;32071;49.036;9.344;2022-08-19T06:27:34;25.20;;;20.10;;
46363;SDS011;32071;49.036;9.344;2022-08-19T06:30:00;26.43;;;20.70;;
46363;SDS011;32071;49.036;9.344;2022-08-19T06:32:27;27.53;;;20.40;;
46363;SDS011;32071;49.036;9.344;2022-08-19T06:34:53;29.27;;;20.93;;
46363;SDS011;32071;49.036;9.344;2022-08-19T06:37:19;25.67;;;19.90;;
46363;SDS011;32071;49.036;9.344;2022-08-19T06:39:46;27.37;;;20.97;;
46363;SDS011;32071;49.036;9.344;2022-08-19T06:42:13;27.93;;;20.50;;
46363;SDS011;32071;49.036;9.344;2022-08-19T06:44:41;28.20;;;20.43;;
46363;SDS011;32071;49.036;9.344;2022-08-19T06:47:08;30.80;;;20.83;;
46363;SDS011;32071;49.036;9.344;2022-08-19T06:49:37;26.10;;;21.23;;
46363;SDS011;32071;49.036;9.344;2022-08-19T06:52:03;27.27;;;21.07;;
46363;SDS011;32071;49.036;9.344;2022-08-19T06:54:30;27.43;;;21.83;;
46363;SDS011;32071;49.036;9.344;2022-08-19T06:56:59;32.93;;;22.50;;
46363;SDS011;32071;49.036;9.344;2022-08-19T06:59:29;26.77;;;21.30;;
46363;SDS011;32071;49.036;9.344;2022-08-19T07:01:57;29.07;;;22.43;;
46363;SDS011;32071;49.036;9.344;2022-08-19T07:04:29;26.90;;;21.53;;
46363;SDS011;32071;49.036;9.344;2022-08-19T07:07:18;27.87;;;21.30;;
46363;SDS011;32071;49.036;9.344;2022-08-19T07:09:43;25.60;;;20.17;;
46363;SDS011;32071;49.036;9.344;2022-08-19T07:12:10;25.17;;;20.33;;
46363;SDS011;32071;49.036;9.344;2022-08-19T07:14:38;31.33;;;21.20;;
46363;SDS011;32071;49.036;9.344;2022-08-19T07:17:06;27.73;;;19.83;;
46363;SDS011;32071;49.036;9.344;2022-08-19T07:19:34;26.73;;;22.10;;
46363;SDS011;32071;49.036;9.344;2022-08-19T07:22:01;28.03;;;21.47;;
46363;SDS011;32071;49.036;9.344;2022-08-19T07:24:28;28.00;;;21.30;;
46363;SDS011;32071;49.036;9.344;2022-08-19T07:26:56;26.27;;;21.47;;
46363;SDS011;32071;49.036;9.344;2022-08-19T07:29:25;27.37;;;21.97;;
46363;SDS011;32071;49.036;9.344;2022-08-19T07:31:52;26.60;;;20.63;;
46363;SDS011;32071;49.036;9.344;2022-08-19T07:34:21;32.00;;;22.63;;
46363;SDS011;32071;49.036;9.344;2022-08-19T07:36:47;28.00;;;20.43;;
46363;SDS011;32071;49.036;9.344;2022-08-19T07:39:15;24.80;;;19.97;;
46363;SDS011;32071;49.036;9.344;2022-08-19T07:41:45;26.23;;;20.47;;
46363;SDS011;32071;49.036;9.344;2022-08-19T07:44:12;26.50;;;21.03;;
46363;SDS011;32071;49.036;9.344;2022-08-19T07:46:40;24.87;;;20.47;;
46363;SDS011;32071;49.036;9.344;2022-08-19T07:49:09;26.03;;;20.60;;
46363;SDS011;32071;49.036;9.344;2022-08-19T07:51:52;27.90;;;21.03;;
46363;SDS011;32071;49.036;9.344;2022-08-19T07:54:22;24.67;;;19.93;;
46363;SDS011;32071;49.036;9.344;2022-08-19T07:56:50;25.50;;;19.33;;
46363;SDS011;32071;49.036;9.344;2022-08-19T07:59:16;25.60;;;20.50;;
46363;SDS011;32071;49.036;9.344;2022-08-19T08:01:43;25.47;;;20.20;;
46363;SDS011;32071;49.036;9.344;2022-08-19T08:04:09;26.33;;;20.70;;
46363;SDS011;32071;49.036;9.344;2022-08-19T08:06:54;23.23;;;19.20;;
46363;SDS011;32071;49.036;9.344;2022-08-19T08:09:39;27.07;;;20.67;;
46363;SDS011;32071;49.036;9.344;2022-08-19T08:12:08;24.53;;;19.90;;
46363;SDS011;32071;49.036;9.344;2022-08-19T08:14:38;28.13;;;19.77;;
46363;SDS011;32071;49.036;9.344;2022-08-19T08:17:07;25.23;;;20.53;;
46363;SDS011;32071;49.036;9.344;2022-08-19T08:19:34;22.77;;;19.60;;
46363;SDS011;32071;49.036;9.344;2022-08-19T08:22:00;24.60;;;19.97;;
46363;SDS011;32071;49.036;9.344;2022-08-19T08:24:27;23.93;;;19.77;;
46363;SDS011;32071;49.036;9.344;2022-08-19T08:26:55;26.53;;;19.40;;
46363;SDS011;32071;49.036;9.344;2022-08-19T08:29:22;24.80;;;19.90;;
46363;SDS011;32071;49.036;9.344;2022-08-19T08:31:48;26.20;;;18.17;;
46363;SDS011;32071;49.036;9.344;2022-08-19T08:34:14;25.27;;;19.50;;
46363;SDS011;32071;49.036;9.344;2022-08-19T08:36:41;20.90;;;18.53;;
46363;SDS011;32071;49.036;9.344;2022-08-19T08:39:11;27.93;;;18.40;;
46363;SDS011;32071;49.036;9.344;2022-08-19T08:44:16;27.53;;;18.53;;
46363;SDS011;32071;49.036;9.344;2022-08-19T08:46:49;22.93;;;17.87;;
46363;SDS011;32071;49.036;9.344;2022-08-19T08:49:29;25.17;;;18.03;;
46363;SDS011;32071;49.036;9.344;2022-08-19T08:52:05;19.23;;;16.67;;
46363;SDS011;32071;49.036;9.344;2022-08-19T08:54:43;21.13;;;17.67;;
46363;SDS011;32071;49.036;9.344;2022-08-19T08:57:12;20.80;;;17.67;;
46363;SDS011;32071;49.036;9.344;2022-08-19T08:59:43;20.10;;;16.30;;
46363;SDS011;32071;49.036;9.344;2022-08-19T09:02:16;20.87;;;17.60;;
46363;SDS011;32071;49.036;9.344;2022-08-19T09:04:46;19.70;;;16.80;;
46363;SDS011;32071;49.036;9.344;2022-08-19T09:07:29;20.17;;;16.97;;
46363;SDS011;32071;49.036;9.344;2022-08-19T09:10:02;21.83;;;17.73;;
46363;SDS011;32071;49.036;9.344;2022-08-19T09:12:46;17.10;;;14.80;;
46363;SDS011;32071;49.036;9.344;2022-08-19T09:15:25;18.67;;;15.53;;
46363;SDS011;32071;49.036;9.344;2022-08-19T09:17:59;23.50;;;18.33;;
46363;SDS011;32071;49.036;9.344;2022-08-19T09:20:26;20.50;;;15.80;;
46363;SDS011;32071;49.036;9.344;2022-08-19T09:22:53;18.70;;;15.90;;
46363;SDS011;32071;49.036;9.344;2022-08-19T09:25:20;18.57;;;16.60;;
46363;SDS011;32071;49.036;9.344;2022-08-19T09:27:49;19.03;;;16.93;;
46363;SDS011;32071;49.036;9.344;2022-08-19T09:30:20;19.23;;;16.40;;
46363;SDS011;32071;49.036;9.344;2022-08-19T09:32:48;22.57;;;17.20;;
46363;SDS011;32071;49.036;9.344;2022-08-19T09:35:17;21.00;;;16.50;;
46363;SDS011;32071;49.036;9.344;2022-08-19T09:37:42;19.40;;;16.97;;
46363;SDS011;32071;49.036;9.344;2022-08-19T09:40:08;24.23;;;18.47;;
46363;SDS011;32071;49.036;9.344;2022-08-19T09:42:36;20.97;;;16.77;;
46363;SDS011;32071;49.036;9.344;2022-08-19T09:45:02;21.63;;;16.57;;
46363;SDS011;32071;49.036;9.344;2022-08-19T09:47:28;18.33;;;16.33;;
46363;SDS011;32071;49.036;9.344;2022-08-19T09:49:54;25.33;;;16.70;;
46363;SDS011;32071;49.036;9.344;2022-08-19T09:52:20;19.57;;;17.47;;
46363;SDS011;32071;49.036;9.344;2022-08-19T09:54:46;19.30;;;17.07;;
46363;SDS011;32071;49.036;9.344;2022-08-19T09:57:11;20.50;;;17.13;;
46363;SDS011;32071;49.036;9.344;2022-08-19T09:59:38;17.77;;;15.93;;
46363;SDS011;32071;49.036;9.344;2022-08-19T10:02:05;18.97;;;16.90;;
46363;SDS011;32071;49.036;9.344;2022-08-19T10:04:30;18.97;;;16.40;;
46363;SDS011;32071;49.036;9.344;2022-08-19T10:07:15;19.33;;;17.13;;
46363;SDS011;32071;49.036;9.344;2022-08-19T10:09:40;21.70;;;17.67;;
46363;SDS011;32071;49.036;9.344;2022-08-19T10:12:06;17.77;;;15.93;;
46363;SDS011;32071;49.036;9.344;2022-08-19T10:14:33;20.67;;;16.10;;
46363;SDS011;32071;49.036;9.344;2022-08-19T10:16:58;18.77;;;15.40;;
46363;SDS011;32071;49.036;9.344;2022-08-19T10:19:25;17.03;;;15.30;;
46363;SDS011;32071;49.036;9.344;2022-08-19T10:21:53;18.97;;;17.03;;
46363;SDS011;32071;49.036;9.344;2022-08-19T10:24:19;18.73;;;16.60;;
46363;SDS011;32071;49.036;9.344;2022-08-19T10:26:45;18.63;;;16.63;;
46363;SDS011;32071;49.036;9.344;2022-08-19T10:29:13;19.30;;;15.70;;
46363;SDS011;32071;49.036;9.344;2022-08-19T10:31:41;18.10;;;16.10;;
46363;SDS011;32071;49.036;9.344;2022-08-19T10:34:07;19.30;;;15.77;;
46363;SDS011;32071;49.036;9.344;2022-08-19T10:36:35;17.70;;;15.73;;
46363;SDS011;32071;49.036;9.344;2022-08-19T10:39:03;21.13;;;14.70;;
46363;SDS011;32071;49.036;9.344;2022-08-19T10:41:32;16.50;;;14.80;;
46363;SDS011;32071;49.036;9.344;2022-08-19T10:44:06;16.17;;;14.47;;
46363;SDS011;32071;49.036;9.344;2022-08-19T10:46:36;16.83;;;14.63;;
46363;SDS011;32071;49.036;9.344;2022-08-19T10:49:03;14.43;;;12.93;;
46363;SDS011;32071;49.036;9.344;2022-08-19T10:51:30;15.97;;;14.20;;
46363;SDS011;32071;49.036;9.344;2022-08-19T10:54:15;22.67;;;14.03;;
46363;SDS011;32071;49.036;9.344;2022-08-19T10:56:41;14.70;;;13.30;;
46363;SDS011;32071;49.036;9.344;2022-08-19T10:59:16;14.27;;;12.73;;
46363;SDS011;32071;49.036;9.344;2022-08-19T11:01:51;13.30;;;11.00;;
46363;SDS011;32071;49.036;9.344;2022-08-19T11:04:17;11.23;;;10.23;;
46363;SDS011;32071;49.036;9.344;2022-08-19T11:06:44;11.80;;;10.70;;
46363;SDS011;32071;49.036;9.344;2022-08-19T11:09:12;10.40;;;9.40;;
46363;SDS011;32071;49.036;9.344;2022-08-19T11:11:42;10.43;;;9.43;;
46363;SDS011;32071;49.036;9.344;2022-08-19T11:14:10;9.90;;;9.07;;
46363;SDS011;32071;49.036;9.344;2022-08-19T11:16:38;11.80;;;9.13;;
46363;SDS011;32071;49.036;9.344;2022-08-19T11:19:05;12.57;;;10.87;;
46363;SDS011;32071;49.036;9.344;2022-08-19T11:21:34;11.20;;;10.07;;
46363;SDS011;32071;49.036;9.344;2022-08-19T11:24:03;10.17;;;9.27;;
46363;SDS011;32071;49.036;9.344;2022-08-19T11:26:35;10.40;;;9.50;;
46363;SDS011;32071;49.036;9.344;2022-08-19T11:29:02;10.57;;;9.63;;
46363;SDS011;32071;49.036;9.344;2022-08-19T11:31:34;11.40;;;10.20;;
46363;SDS011;32071;49.036;9.344;2022-08-19T11:34:01;12.77;;;9.53;;
46363;SDS011;32071;49.036;9.344;2022-08-19T11:36:28;9.90;;;9.03;;
46363;SDS011;32071;49.036;9.344;2022-08-19T11:38:56;10.43;;;9.43;;
46363;SDS011;32071;49.036;9.344;2022-08-19T11:41:22;10.73;;;9.70;;
46363;SDS011;32071;49.036;9.344;2022-08-19T11:43:48;10.83;;;9.73;;
46363;SDS011;32071;49.036;9.344;2022-08-19T11:46:15;11.97;;;9.13;;
46363;SDS011;32071;49.036;9.344;2022-08-19T11:48:42;9.00;;;8.20;;
46363;SDS011;32071;49.036;9.344;2022-08-19T11:51:13;10.80;;;8.70;;
46363;SDS011;32071;49.036;9.344;2022-08-19T11:53:40;10.03;;;9.03;;
46363;SDS011;32071;49.036;9.344;2022-08-19T11:56:07;10.10;;;9.20;;
46363;SDS011;32071;49.036;9.344;2022-08-19T11:58:34;9.97;;;8.97;;
46363;SDS011;32071;49.036;9.344;2022-08-19T12:01:00;9.43;;;8.43;;
46363;SDS011;32071;49.036;9.344;2022-08-19T12:03:26;10.00;;;8.90;;
46363;SDS011;32071;49.036;9.344;2022-08-19T12:05:52;10.20;;;9.17;;
46363;SDS011;32071;49.036;9.344;2022-08-19T12:08:18;9.00;;;8.20;;
46363;SDS011;32071;49.036;9.344;2022-08-19T12:10:44;8.53;;;7.63;;
46363;SDS011;32071;49.036;9.344;2022-08-19T12:13:10;8.83;;;7.67;;
46363;SDS011;32071;49.036;9.344;2022-08-19T12:15:39;8.20;;;7.50;;
46363;SDS011;32071;49.036;9.344;2022-08-19T12:18:06;8.70;;;8.00;;
46363;SDS011;32071;49.036;9.344;2022-08-19T12:20:35;9.27;;;8.03;;
46363;SDS011;32071;49.036;9.344;2022-08-19T12:23:03;8.37;;;7.50;;
46363;SDS011;32071;49.036;9.344;2022-08-19T12:25:29;8.17;;;7.43;;
46363;SDS011;32071;49.036;9.344;2022-08-19T12:27:55;8.20;;;7.40;;
46363;SDS011;32071;49.036;9.344;2022-08-19T12:30:21;8.50;;;7.77;;
46363;SDS011;32071;49.036;9.344;2022-08-19T12:32:47;7.00;;;6.40;;
46363;SDS011;32071;49.036;9.344;2022-08-19T12:35:12;8.70;;;7.90;;
46363;SDS011;32071;49.036;9.344;2022-08-19T12:37:38;8.53;;;7.73;;
46363;SDS011;32071;49.036;9.344;2022-08-19T12:40:09;7.97;;;7.20;;
46363;SDS011;32071;49.036;9.344;2022-08-19T12:42:37;7.77;;;7.17;;
46363;SDS011;32071;49.036;9.344;2022-08-19T12:45:06;7.80;;;7.10;;
46363;SDS011;32071;49.036;9.344;2022-08-19T12:47:32;8.00;;;7.30;;
46363;SDS011;32071;49.036;9.344;2022-08-19T12:49:58;8.57;;;7.87;;
46363;SDS011;32071;49.036;9.344;2022-08-19T12:52:24;8.50;;;7.70;;
46363;SDS011;32071;49.036;9.344;2022-08-19T12:54:52;8.53;;;6.80;;
46363;SDS011;32071;49.036;9.344;2022-08-19T12:57:19;8.23;;;7.43;;
46363;SDS011;32071;49.036;9.344;2022-08-19T12:59:45;8.03;;;7.27;;
46363;SDS011;32071;49.036;9.344;2022-08-19T13:02:11;7.90;;;7.10;;
46363;SDS011;32071;49.036;9.344;2022-08-19T13:04:37;7.90;;;7.20;;
46363;SDS011;32071;49.036;9.344;2022-08-19T13:07:05;7.77;;;6.97;;
46363;SDS011;32071;49.036;9.344;2022-08-19T13:09:32;7.60;;;6.80;;
46363;SDS011;32071;49.036;9.344;2022-08-19T13:11:58;8.27;;;7.57;;
46363;SDS011;32071;49.036;9.344;2022-08-19T13:14:27;9.40;;;7.67;;
46363;SDS011;32071;49.036;9.344;2022-08-19T13:16:55;8.27;;;7.60;;
46363;SDS011;32071;49.036;9.344;2022-08-19T13:19:22;9.13;;;8.37;;
46363;SDS011;32071;49.036;9.344;2022-08-19T13:21:49;10.20;;;7.60;;
46363;SDS011;32071;49.036;9.344;2022-08-19T13:24:16;9.63;;;8.40;;
46363;SDS011;32071;49.036;9.344;2022-08-19T13:26:42;7.70;;;7.00;;
46363;SDS011;32071;49.036;9.344;2022-08-19T13:29:07;8.33;;;7.63;;
46363;SDS011;32071;49.036;9.344;2022-08-19T13:31:52;9.27;;;6.70;;
46363;SDS011;32071;49.036;9.344;2022-08-19T13:34:36;7.53;;;6.80;;
46363;SDS011;32071;49.036;9.344;2022-08-19T13:37:03;8.03;;;7.43;;
46363;SDS011;32071;49.036;9.344;2022-08-19T13:39:29;9.07;;;8.27;;
46363;SDS011;32071;49.036;9.344;2022-08-19T13:41:59;8.30;;;7.50;;
46363;SDS011;32071;49.036;9.344;2022-08-19T13:44:25;7.80;;;7.10;;
46363;SDS011;32071;49.036;9.344;2022-08-19T13:46:54;8.80;;;7.87;;
46363;SDS011;32071;49.036;9.344;2022-08-19T13:49:24;8.43;;;7.60;;
46363;SDS011;32071;49.036;9.344;2022-08-19T13:51:49;7.77;;;7.10;;
46363;SDS011;32071;49.036;9.344;2022-08-19T13:54:15;7.60;;;6.90;;
46363;SDS011;32071;49.036;9.344;2022-08-19T13:56:42;7.60;;;7.00;;
46363;SDS011;32071;49.036;9.344;2022-08-19T13:59:09;9.03;;;8.33;;
46363;SDS011;32071;49.036;9.344;2022-08-19T14:01:35;8.37;;;7.67;;
46363;SDS011;32071;49.036;9.344;2022-08-19T14:04:02;9.30;;;8.50;;
46363;SDS011;32071;49.036;9.344;2022-08-19T14:06:28;10.93;;;9.27;;
46363;SDS011;32071;49.036;9.344;2022-08-19T14:08:54;12.17;;;10.10;;
46363;SDS011;32071;49.036;9.344;2022-08-19T14:11:19;11.30;;;10.07;;
46363;SDS011;32071;49.036;9.344;2022-08-19T14:13:45;10.43;;;9.43;;
46363;SDS011;32071;49.036;9.344;2022-08-19T14:16:11;12.07;;;10.10;;
46363;SDS011;32071;49.036;9.344;2022-08-19T14:18:38;11.77;;;10.63;;
46363;SDS011;32071;49.036;9.344;2022-08-19T14:21:05;11.47;;;10.30;;
46363;SDS011;32071;49.036;9.344;2022-08-19T14:23:31;10.83;;;9.83;;
46363;SDS011;32071;49.036;9.344;2022-08-19T14:26:08;8.77;;;7.87;;
46363;SDS011;32071;49.036;9.344;2022-08-19T14:28:36;11.87;;;10.60;;
46363;SDS011;32071;49.036;9.344;2022-08-19T14:31:02;10.77;;;9.77;;
46363;SDS011;32071;49.036;9.344;2022-08-19T14:33:27;11.50;;;10.50;;
46363;SDS011;32071;49.036;9.344;2022-08-19T14:35:53;10.10;;;9.10;;
46363;SDS011;32071;49.036;9.344;2022-08-19T14:38:19;10.33;;;9.30;;